Home   Weather   USA   Augusta   Past weeks
Flag for USA

Past Weather in Augusta, Maine, USA — November 2018

Currently: 26 °F. Clear. (Weather station: Augusta State Airport, USA). See more current weather

November 2018 Weather in Augusta — Graph

°F

High & Low Weather Summary for November 2018

 TemperatureHumidityPressure
High59 °F (Nov 7, 11:53 am)100% (Nov 1, 4:53 am)30.63 "Hg (Nov 1, 4:53 am)
Low4 °F (Nov 22, 6:53 am)32% (Nov 15, 2:53 pm)29.12 "Hg (Nov 27, 5:10 pm)
Average33 °F80%29.93 "Hg
* Reported Nov 1 12:53 am — Nov 30 11:53 pm, Augusta. Weather by CustomWeather, © 2023

Note: Actual official high and low records may vary slightly from our data, if they occured in-between our weather recording intervals... More about our weather records

Augusta Weather History for November 1, 2018

Scroll right to see more
 ConditionsComfort  
Time TempWeatherWind HumidityBarometerVisibility
12:53 am
Thu, Nov 1
43 °FLow clouds.6 mph93%29.86 "Hg10 mi
1:53 am42 °FMostly cloudy.5 mph96%29.85 "Hg10 mi
2:53 am42 °FOvercast.No wind96%29.85 "Hg10 mi
3:53 am42 °FClear.No wind96%29.84 "Hg10 mi
4:53 am40 °FClear.No wind100%29.87 "Hg8 mi
5:53 am41 °FOvercast.No wind93%29.87 "Hg10 mi
6:53 am39 °FPassing clouds.No wind100%29.88 "Hg10 mi
7:53 am40 °FSunny.3 mph93%29.90 "Hg10 mi
8:53 am43 °FSunny.No wind86%29.90 "Hg10 mi
9:53 am44 °FOvercast.3 mph85%29.90 "Hg10 mi
10:53 am46 °FOvercast.No wind86%29.90 "Hg10 mi
11:53 am46 °FOvercast.3 mph89%29.90 "Hg10 mi
12:53 pm47 °FLight rain. Overcast.3 mph90%29.88 "Hg10 mi
1:53 pm48 °FLight rain. Overcast.3 mph93%29.88 "Hg10 mi
2:53 pm48 °FLight rain. Fog.3 mph96%29.89 "Hg6 mi
3:07 pm48 °FLight rain. Fog.No wind96%29.89 "Hg5 mi
3:53 pm48 °FLight rain. Fog.3 mph96%29.91 "Hg2 mi
4:19 pm47 °FLight rain. Fog.3 mph100%29.90 "Hg2 mi
4:37 pm47 °FLight rain. Fog.3 mph100%29.89 "Hg2 mi
4:53 pm47 °FLight rain. Fog.No wind100%29.90 "Hg3 mi
5:19 pm47 °FLight rain. Fog.No wind100%29.92 "Hg2 mi
5:26 pm47 °FLight rain. Fog.No wind100%29.93 "Hg4 mi
5:53 pm47 °FLight rain. Fog.No wind100%29.94 "Hg5 mi
6:53 pm47 °FFog.No wind97%29.93 "Hg5 mi
7:35 pm47 °FFog.No wind97%29.90 "Hg1 mi
7:53 pm47 °FFog.No wind100%29.93 "Hg0 mi
8:53 pm46 °FFog.No wind100%29.91 "Hg1 mi
9:34 pm46 °FFog.No wind100%29.92 "Hg1 mi
9:53 pm46 °FFog.3 mph100%29.90 "Hg1 mi
10:09 pm46 °FFog.No wind100%29.90 "Hg0 mi
10:38 pm46 °FFog.No wind100%29.90 "Hg2 mi
10:42 pm46 °FFog.3 mph96%29.91 "Hg1 mi
10:53 pm46 °FFog.5 mph96%29.90 "Hg0 mi
11:39 pm46 °FFog.5 mph96%29.90 "Hg1 mi
Weather by CustomWeather, © 2023

See weather overview